createdAt,value
2022-07-31T00:00:23.029Z,20.60
2022-07-31T00:01:23.014Z,20.69
2022-07-31T00:02:23.020Z,20.60
2022-07-31T00:03:23.079Z,20.56
2022-07-31T00:04:23.024Z,20.63
2022-07-31T00:05:23.026Z,20.60
2022-07-31T00:06:23.037Z,20.55
2022-07-31T00:07:23.023Z,20.56
2022-07-31T00:08:23.031Z,20.55
2022-07-31T00:09:53.300Z,20.56
2022-07-31T00:10:23.053Z,20.50
2022-07-31T00:11:23.040Z,20.56
2022-07-31T00:12:23.053Z,20.50
2022-07-31T00:13:57.320Z,20.47
2022-07-31T00:14:23.047Z,20.48
2022-07-31T00:15:23.045Z,20.50
2022-07-31T00:16:23.061Z,20.37
2022-07-31T00:17:23.033Z,20.43
2022-07-31T00:18:23.041Z,20.51
2022-07-31T00:19:23.041Z,20.36
2022-07-31T00:20:23.039Z,20.43
2022-07-31T00:21:23.055Z,20.41
2022-07-31T00:22:23.058Z,20.40
2022-07-31T00:23:23.044Z,20.29
2022-07-31T00:24:23.055Z,20.28
2022-07-31T00:25:23.047Z,20.36
2022-07-31T00:26:23.056Z,20.29
2022-07-31T00:27:23.051Z,20.29
2022-07-31T00:28:23.070Z,20.25
2022-07-31T00:29:23.067Z,20.11
2022-07-31T00:30:23.058Z,20.31
2022-07-31T00:31:23.063Z,20.28
2022-07-31T00:32:23.104Z,20.13
2022-07-31T00:33:23.075Z,20.21
2022-07-31T00:34:23.061Z,20.26
2022-07-31T00:35:23.086Z,20.21
2022-07-31T00:36:28.040Z,20.26
2022-07-31T00:37:23.072Z,20.22
2022-07-31T00:38:27.142Z,20.19
2022-07-31T00:39:23.094Z,20.25
2022-07-31T00:40:23.110Z,20.22
2022-07-31T00:41:23.090Z,20.16
2022-07-31T00:42:23.106Z,20.18
2022-07-31T00:43:23.070Z,20.13
2022-07-31T00:44:23.072Z,20.19
2022-07-31T00:45:25.923Z,20.24
2022-07-31T00:46:23.202Z,20.21
2022-07-31T00:47:25.492Z,20.24
2022-07-31T00:48:23.076Z,20.22
2022-07-31T00:49:23.152Z,20.09
2022-07-31T00:50:23.089Z,20.06
2022-07-31T00:51:23.088Z,20.06
2022-07-31T00:52:23.116Z,20.09
2022-07-31T00:53:23.091Z,20.10
2022-07-31T00:54:23.283Z,20.11
2022-07-31T00:55:23.114Z,20.00
2022-07-31T00:56:23.079Z,20.03
2022-07-31T00:57:23.104Z,20.02
2022-07-31T00:58:23.105Z,20.03
2022-07-31T00:59:24.585Z,20.00
2022-07-31T01:00:23.093Z,19.95
2022-07-31T01:01:23.187Z,20.10
2022-07-31T01:02:23.100Z,19.96
2022-07-31T01:03:23.111Z,20.00
2022-07-31T01:04:23.099Z,19.92
2022-07-31T01:05:23.093Z,19.91
2022-07-31T01:06:23.104Z,19.96
2022-07-31T01:07:23.120Z,20.00
2022-07-31T01:08:23.099Z,19.95
2022-07-31T01:09:23.129Z,20.02
2022-07-31T01:10:23.102Z,20.03
2022-07-31T01:11:23.132Z,19.95
2022-07-31T01:12:23.104Z,19.96
2022-07-31T01:13:23.120Z,19.91
2022-07-31T01:14:23.108Z,20.00
2022-07-31T01:15:23.114Z,20.00
2022-07-31T01:16:23.127Z,19.91
2022-07-31T01:17:23.109Z,20.00
2022-07-31T01:18:23.110Z,19.95
2022-07-31T01:19:23.106Z,19.89
2022-07-31T01:20:23.116Z,19.89
2022-07-31T01:21:23.115Z,19.85
2022-07-31T01:22:33.578Z,19.84
2022-07-31T01:23:23.112Z,19.85
2022-07-31T01:24:23.120Z,19.88
2022-07-31T01:25:23.118Z,19.79
2022-07-31T01:26:23.125Z,19.81
2022-07-31T01:27:23.119Z,19.82
2022-07-31T01:28:23.117Z,19.74
2022-07-31T01:29:23.123Z,19.79
2022-07-31T01:30:24.781Z,19.67
2022-07-31T01:31:27.497Z,19.77
2022-07-31T01:32:27.586Z,19.67
2022-07-31T01:33:23.128Z,19.69
2022-07-31T01:34:23.121Z,19.74
2022-07-31T01:35:23.122Z,19.81
2022-07-31T01:36:23.129Z,19.73
2022-07-31T01:37:23.152Z,19.81
2022-07-31T01:38:23.141Z,19.73
2022-07-31T01:39:23.125Z,19.62
2022-07-31T01:40:23.153Z,19.63
2022-07-31T01:41:23.126Z,19.70
2022-07-31T01:42:23.132Z,19.69
2022-07-31T01:43:23.131Z,19.70
2022-07-31T01:44:23.139Z,19.67
2022-07-31T01:45:23.131Z,19.58
2022-07-31T01:46:23.141Z,19.74
2022-07-31T01:47:23.135Z,19.69
2022-07-31T01:48:23.143Z,19.73
2022-07-31T01:49:23.229Z,19.79
2022-07-31T01:50:42.496Z,19.66
2022-07-31T01:51:23.144Z,19.74
2022-07-31T01:52:23.133Z,19.69
2022-07-31T01:53:23.145Z,19.64
2022-07-31T01:54:23.140Z,19.71
2022-07-31T01:55:23.866Z,19.58
2022-07-31T01:56:23.139Z,19.58
2022-07-31T01:57:23.140Z,19.59
2022-07-31T01:58:23.142Z,19.62
2022-07-31T01:59:24.543Z,19.66
2022-07-31T02:00:33.763Z,19.62
2022-07-31T02:01:27.006Z,19.59
2022-07-31T02:02:23.161Z,19.55
2022-07-31T02:03:43.809Z,19.63
2022-07-31T02:04:23.155Z,19.55
2022-07-31T02:05:23.160Z,19.55
2022-07-31T02:06:23.150Z,19.47
2022-07-31T02:07:23.151Z,19.62
2022-07-31T02:08:23.181Z,19.52
2022-07-31T02:09:23.157Z,19.55
2022-07-31T02:10:23.193Z,19.58
2022-07-31T02:11:23.174Z,19.48
2022-07-31T02:12:32.210Z,19.54
2022-07-31T02:13:23.151Z,19.51
2022-07-31T02:14:23.156Z,19.47
2022-07-31T02:15:23.152Z,19.49
2022-07-31T02:16:23.171Z,19.52
2022-07-31T02:17:23.158Z,19.45
2022-07-31T02:18:23.156Z,19.49
2022-07-31T02:19:23.264Z,19.49
2022-07-31T02:20:23.169Z,19.39
2022-07-31T02:21:23.163Z,19.34
2022-07-31T02:22:24.013Z,19.52
2022-07-31T02:23:23.160Z,19.48
2022-07-31T02:24:23.167Z,19.40
2022-07-31T02:25:23.172Z,19.37
2022-07-31T02:26:23.169Z,19.47
2022-07-31T02:27:57.395Z,19.40
2022-07-31T02:28:23.167Z,19.41
2022-07-31T02:29:23.162Z,19.44
2022-07-31T02:30:23.161Z,19.39
2022-07-31T02:31:23.208Z,19.44
2022-07-31T02:32:23.168Z,19.41
2022-07-31T02:33:23.163Z,19.30
2022-07-31T02:34:23.164Z,19.33
2022-07-31T02:35:23.220Z,19.40
2022-07-31T02:36:23.171Z,19.30
2022-07-31T02:37:23.166Z,19.33
2022-07-31T02:38:23.890Z,19.40
2022-07-31T02:39:26.451Z,19.40
2022-07-31T02:40:23.231Z,19.39
2022-07-31T02:41:23.167Z,19.34
2022-07-31T02:42:23.164Z,19.29
2022-07-31T02:43:23.187Z,19.31
2022-07-31T02:44:27.331Z,19.24
2022-07-31T02:45:23.199Z,19.30
2022-07-31T02:46:23.190Z,19.36
2022-07-31T02:47:23.178Z,19.18
2022-07-31T02:48:23.172Z,19.36
2022-07-31T02:49:23.211Z,19.30
2022-07-31T02:50:23.180Z,19.26
2022-07-31T02:51:23.173Z,19.36
2022-07-31T02:52:23.177Z,19.16
2022-07-31T02:53:23.196Z,19.34
2022-07-31T02:54:23.174Z,19.29
2022-07-31T02:55:23.180Z,19.33
2022-07-31T02:56:23.180Z,19.24
2022-07-31T02:57:23.173Z,19.31
2022-07-31T02:58:23.178Z,19.27
2022-07-31T02:59:23.182Z,19.27
2022-07-31T03:00:23.297Z,19.21
2022-07-31T03:01:23.286Z,19.27
2022-07-31T03:02:23.188Z,19.18
2022-07-31T03:03:23.210Z,19.26
2022-07-31T03:04:23.177Z,19.24
2022-07-31T03:05:23.187Z,19.21
2022-07-31T03:06:23.178Z,19.12
2022-07-31T03:07:23.187Z,19.21
2022-07-31T03:08:23.192Z,19.14
2022-07-31T03:09:23.179Z,19.15
2022-07-31T03:10:23.182Z,19.04
2022-07-31T03:11:23.181Z,19.14
2022-07-31T03:12:23.177Z,19.09
2022-07-31T03:13:23.181Z,19.12
2022-07-31T03:14:23.186Z,19.07
2022-07-31T03:15:23.188Z,19.08
2022-07-31T03:16:23.185Z,19.09
2022-07-31T03:17:23.186Z,19.04
2022-07-31T03:18:23.189Z,19.07
2022-07-31T03:19:23.189Z,19.04
2022-07-31T03:20:23.190Z,19.09
2022-07-31T03:21:23.208Z,19.00
2022-07-31T03:22:23.184Z,19.09
2022-07-31T03:23:23.197Z,19.07
2022-07-31T03:24:23.199Z,19.08
2022-07-31T03:25:23.193Z,19.04
2022-07-31T03:26:23.184Z,19.08
2022-07-31T03:27:23.194Z,19.04
2022-07-31T03:28:23.199Z,19.00
2022-07-31T03:29:39.131Z,19.00
2022-07-31T03:30:23.192Z,19.00
2022-07-31T03:31:23.186Z,19.08
2022-07-31T03:32:23.199Z,18.98
2022-07-31T03:33:23.195Z,19.04
2022-07-31T03:34:23.190Z,19.04
2022-07-31T03:35:23.190Z,19.00
2022-07-31T03:36:23.197Z,19.04
2022-07-31T03:37:23.207Z,19.02
2022-07-31T03:38:38.728Z,19.00
2022-07-31T03:39:23.194Z,18.89
2022-07-31T03:40:23.194Z,18.96
2022-07-31T03:41:23.189Z,18.95
2022-07-31T03:42:23.188Z,19.00
2022-07-31T03:43:23.205Z,18.92
2022-07-31T03:44:23.195Z,18.98
2022-07-31T03:45:23.206Z,18.93
2022-07-31T03:46:23.198Z,18.93
2022-07-31T03:47:23.197Z,18.90
2022-07-31T03:48:23.202Z,18.88
2022-07-31T03:49:23.334Z,18.88
2022-07-31T03:50:23.201Z,18.90
2022-07-31T03:51:23.193Z,18.95
2022-07-31T03:52:23.195Z,18.92
2022-07-31T03:53:23.196Z,18.93
2022-07-31T03:54:23.209Z,18.90
2022-07-31T03:55:23.219Z,18.88
2022-07-31T03:56:23.195Z,18.89
2022-07-31T03:57:25.353Z,18.92
2022-07-31T03:58:23.198Z,18.89
2022-07-31T03:59:23.206Z,18.84
2022-07-31T04:00:23.205Z,19.00
2022-07-31T04:01:23.237Z,18.86
2022-07-31T04:02:23.269Z,18.92
2022-07-31T04:03:23.198Z,18.92
2022-07-31T04:04:23.219Z,18.89
2022-07-31T04:05:23.205Z,18.90
2022-07-31T04:06:23.206Z,18.92
2022-07-31T04:07:23.201Z,18.88
2022-07-31T04:08:23.213Z,18.89
2022-07-31T04:09:23.201Z,18.90
2022-07-31T04:10:23.204Z,18.92
2022-07-31T04:11:23.201Z,18.92
2022-07-31T04:12:23.202Z,18.84
2022-07-31T04:13:23.206Z,18.92
2022-07-31T04:14:23.202Z,18.92
2022-07-31T04:15:23.221Z,18.92
2022-07-31T04:16:23.205Z,18.88
2022-07-31T04:17:23.205Z,18.83
2022-07-31T04:18:23.236Z,18.78
2022-07-31T04:19:23.212Z,18.89
2022-07-31T04:20:23.205Z,18.90
2022-07-31T04:21:23.203Z,18.89
2022-07-31T04:22:23.208Z,18.89
2022-07-31T04:23:23.216Z,18.92
2022-07-31T04:24:23.218Z,18.86
2022-07-31T04:25:23.214Z,18.84
2022-07-31T04:26:26.117Z,18.90
2022-07-31T04:27:23.216Z,18.93
2022-07-31T04:28:23.205Z,18.88
2022-07-31T04:29:23.209Z,18.95
2022-07-31T04:30:23.208Z,18.88
2022-07-31T04:31:23.213Z,18.90
2022-07-31T04:32:23.215Z,18.90
2022-07-31T04:33:23.214Z,18.90
2022-07-31T04:34:23.223Z,18.88
2022-07-31T04:35:23.243Z,18.89
2022-07-31T04:36:30.053Z,18.93
2022-07-31T04:37:23.217Z,18.95
2022-07-31T04:38:23.219Z,18.93
2022-07-31T04:39:23.215Z,18.84
2022-07-31T04:40:23.210Z,18.88
2022-07-31T04:41:23.225Z,18.90
2022-07-31T04:42:23.219Z,18.89
2022-07-31T04:43:23.214Z,18.90
2022-07-31T04:44:23.224Z,19.00
2022-07-31T04:45:23.222Z,18.92
2022-07-31T04:46:23.223Z,18.96
2022-07-31T04:47:23.221Z,19.09
2022-07-31T04:48:23.217Z,19.02
2022-07-31T04:49:23.302Z,19.00
2022-07-31T04:50:23.229Z,19.04
2022-07-31T04:51:23.229Z,19.12
2022-07-31T04:52:23.223Z,19.18
2022-07-31T04:53:23.218Z,19.15
2022-07-31T04:54:23.241Z,19.26
2022-07-31T04:55:23.230Z,19.22
2022-07-31T04:56:23.243Z,19.24
2022-07-31T04:57:23.221Z,19.22
2022-07-31T04:58:23.217Z,19.18
2022-07-31T04:59:23.224Z,19.19
2022-07-31T05:00:23.223Z,19.27
2022-07-31T05:01:23.256Z,19.36
2022-07-31T05:02:23.232Z,19.16
2022-07-31T05:03:23.238Z,19.26
2022-07-31T05:04:23.236Z,19.37
2022-07-31T05:05:23.235Z,19.37
2022-07-31T05:06:23.230Z,19.34
2022-07-31T05:07:23.277Z,19.41
2022-07-31T05:08:23.235Z,19.48
2022-07-31T05:09:23.665Z,19.52
2022-07-31T05:10:23.242Z,19.52
2022-07-31T05:11:23.229Z,19.54
2022-07-31T05:12:23.231Z,19.51
2022-07-31T05:13:23.226Z,19.49
2022-07-31T05:14:23.236Z,19.54
2022-07-31T05:15:23.233Z,19.59
2022-07-31T05:16:23.247Z,19.58
2022-07-31T05:17:30.445Z,19.59
2022-07-31T05:19:16.386Z,19.64
2022-07-31T05:20:16.354Z,19.64
2022-07-31T05:22:20.400Z,19.69
2022-07-31T05:23:20.366Z,19.69
2022-07-31T05:25:13.471Z,19.69
2022-07-31T05:26:13.469Z,19.66
2022-07-31T05:28:09.585Z,19.63
2022-07-31T05:29:06.435Z,19.82
2022-07-31T05:31:10.469Z,19.74
2022-07-31T05:32:10.663Z,19.84
2022-07-31T05:34:14.566Z,19.89
2022-07-31T05:35:14.482Z,19.91
2022-07-31T05:37:18.521Z,19.92
2022-07-31T05:38:18.503Z,19.96
2022-07-31T05:40:22.992Z,19.95
2022-07-31T05:41:22.994Z,20.06
2022-07-31T05:42:22.994Z,20.11
2022-07-31T05:43:23.011Z,20.21
2022-07-31T05:44:22.999Z,20.28
2022-07-31T05:45:23.011Z,20.36
2022-07-31T05:46:22.996Z,20.50
2022-07-31T05:47:23.001Z,20.52
2022-07-31T05:48:23.008Z,20.58
2022-07-31T05:49:23.077Z,20.74
2022-07-31T05:50:23.010Z,20.88
2022-07-31T05:51:23.030Z,20.92
2022-07-31T05:52:23.022Z,20.95
2022-07-31T05:53:23.036Z,21.18
2022-07-31T05:54:23.034Z,21.36
2022-07-31T05:55:23.052Z,21.40
2022-07-31T05:56:23.048Z,21.51
2022-07-31T05:57:33.077Z,21.67
2022-07-31T05:58:23.066Z,21.82
2022-07-31T05:59:23.134Z,21.88
2022-07-31T06:00:23.144Z,21.95
2022-07-31T06:01:23.148Z,22.06
2022-07-31T06:02:23.099Z,22.20
2022-07-31T06:03:23.108Z,22.36
2022-07-31T06:04:23.120Z,22.44
2022-07-31T06:05:23.133Z,22.51
2022-07-31T06:06:23.147Z,22.63
2022-07-31T06:07:23.371Z,22.78
2022-07-31T06:08:23.162Z,22.76
2022-07-31T06:09:23.234Z,22.85
2022-07-31T06:10:23.201Z,23.00
2022-07-31T06:11:23.221Z,23.18
2022-07-31T06:12:23.395Z,23.34
2022-07-31T06:13:23.240Z,23.32
2022-07-31T06:14:23.236Z,23.46
2022-07-31T06:15:23.242Z,23.48
2022-07-31T06:16:23.258Z,23.58
2022-07-31T06:17:23.482Z,23.68
2022-07-31T06:18:23.282Z,23.78
2022-07-31T06:19:24.356Z,23.81
2022-07-31T06:20:23.307Z,23.87
2022-07-31T06:21:26.491Z,23.96
2022-07-31T06:22:23.526Z,23.98
2022-07-31T06:23:32.130Z,24.02
2022-07-31T06:24:23.354Z,24.11
2022-07-31T06:25:23.391Z,24.10
2022-07-31T06:26:24.300Z,24.17
2022-07-31T06:27:33.631Z,24.20
2022-07-31T06:28:23.651Z,24.29
2022-07-31T06:29:40.969Z,24.28
2022-07-31T06:30:23.435Z,24.33
2022-07-31T06:31:23.479Z,24.48
2022-07-31T06:32:23.485Z,24.45
2022-07-31T06:33:37.536Z,24.51
2022-07-31T06:34:23.490Z,24.61
2022-07-31T06:35:23.510Z,24.78
2022-07-31T06:36:23.526Z,24.77
2022-07-31T06:37:23.537Z,24.95
2022-07-31T06:38:23.563Z,24.92
2022-07-31T06:39:23.562Z,25.07
2022-07-31T06:40:23.568Z,25.04
2022-07-31T06:41:23.596Z,25.21
2022-07-31T06:42:23.605Z,25.08
2022-07-31T06:43:23.633Z,25.28
2022-07-31T06:44:23.641Z,25.33
2022-07-31T06:45:48.526Z,25.43
2022-07-31T06:46:23.670Z,25.40
2022-07-31T06:47:23.687Z,25.50
2022-07-31T06:48:23.692Z,25.59
2022-07-31T06:49:23.764Z,25.66
2022-07-31T06:50:23.728Z,25.69
2022-07-31T06:51:32.203Z,25.69
2022-07-31T06:52:23.742Z,25.84
2022-07-31T06:53:23.757Z,25.95
2022-07-31T06:54:26.480Z,25.95
2022-07-31T06:55:23.794Z,25.98
2022-07-31T06:56:23.955Z,25.99
2022-07-31T06:57:23.847Z,26.05
2022-07-31T06:58:23.831Z,26.16
2022-07-31T06:59:39.437Z,26.23
2022-07-31T07:00:23.864Z,26.15
2022-07-31T07:01:23.970Z,26.19
2022-07-31T07:02:23.894Z,26.25
2022-07-31T07:03:23.929Z,26.33
2022-07-31T07:04:23.933Z,26.29
2022-07-31T07:05:23.951Z,26.28
2022-07-31T07:06:23.969Z,26.28
2022-07-31T07:07:24.011Z,26.36
2022-07-31T07:08:23.997Z,26.40
2022-07-31T07:09:24.043Z,26.48
2022-07-31T07:10:24.057Z,26.53
2022-07-31T07:11:24.036Z,26.62
2022-07-31T07:12:24.060Z,26.75
2022-07-31T07:13:24.068Z,26.71
2022-07-31T07:14:24.082Z,26.81
2022-07-31T07:15:24.109Z,26.85
2022-07-31T07:16:24.120Z,26.85
2022-07-31T07:17:28.830Z,26.84
2022-07-31T07:18:24.161Z,26.77
2022-07-31T07:19:24.167Z,26.90
2022-07-31T07:20:24.196Z,26.96
2022-07-31T07:21:24.195Z,26.96
2022-07-31T07:22:31.724Z,26.92
2022-07-31T07:23:24.245Z,26.95
2022-07-31T07:24:24.249Z,26.90
2022-07-31T07:25:24.260Z,27.00
2022-07-31T07:26:24.301Z,27.10
2022-07-31T07:27:24.299Z,27.00
2022-07-31T07:28:30.517Z,27.11
2022-07-31T07:29:24.328Z,27.12
2022-07-31T07:30:24.367Z,27.25
2022-07-31T07:31:24.370Z,27.26
2022-07-31T07:32:24.380Z,27.35
2022-07-31T07:33:41.813Z,27.36
2022-07-31T07:34:24.443Z,27.54
2022-07-31T07:35:24.435Z,27.47
2022-07-31T07:36:24.931Z,27.42
2022-07-31T07:37:24.478Z,27.52
2022-07-31T07:38:24.478Z,27.60
2022-07-31T07:39:24.496Z,27.68
2022-07-31T07:40:24.525Z,27.75
2022-07-31T07:41:24.547Z,27.78
2022-07-31T07:42:24.547Z,27.75
2022-07-31T07:43:24.590Z,27.75
2022-07-31T07:44:24.585Z,27.74
2022-07-31T07:45:24.603Z,27.87
2022-07-31T07:46:24.637Z,27.85
2022-07-31T07:47:24.650Z,27.92
2022-07-31T07:48:24.652Z,27.93
2022-07-31T07:49:24.800Z,28.07
2022-07-31T07:50:27.149Z,28.07
2022-07-31T07:51:24.702Z,28.14
2022-07-31T07:52:28.735Z,28.25
2022-07-31T07:53:24.781Z,28.22
2022-07-31T07:54:24.770Z,28.23
2022-07-31T07:55:24.774Z,28.22
2022-07-31T07:56:24.860Z,28.17
2022-07-31T07:57:24.804Z,28.26
2022-07-31T07:58:24.828Z,28.25
2022-07-31T07:59:24.851Z,28.11
2022-07-31T08:00:24.878Z,28.23
2022-07-31T08:01:24.949Z,28.17
2022-07-31T08:02:24.898Z,28.12
2022-07-31T08:03:50.700Z,28.26
2022-07-31T08:04:24.970Z,28.27
2022-07-31T08:05:24.952Z,28.20
2022-07-31T08:06:24.983Z,28.32
2022-07-31T08:07:24.982Z,28.26
2022-07-31T08:08:25.034Z,28.26
2022-07-31T08:09:25.052Z,28.25
2022-07-31T08:10:25.050Z,28.25
2022-07-31T08:11:25.066Z,28.25
2022-07-31T08:12:25.097Z,28.22
2022-07-31T08:13:25.088Z,28.32
2022-07-31T08:14:25.128Z,28.23
2022-07-31T08:15:25.136Z,28.33
2022-07-31T08:16:25.156Z,28.35
2022-07-31T08:17:25.206Z,28.33
2022-07-31T08:18:27.104Z,28.38
2022-07-31T08:19:25.229Z,28.45
2022-07-31T08:20:25.199Z,28.47
2022-07-31T08:21:25.228Z,28.44
2022-07-31T08:22:25.244Z,28.57
2022-07-31T08:23:25.263Z,28.56
2022-07-31T08:24:25.267Z,28.54
2022-07-31T08:25:25.285Z,28.67
2022-07-31T08:26:27.303Z,28.67
2022-07-31T08:27:39.368Z,28.70
2022-07-31T08:28:25.331Z,28.64
2022-07-31T08:29:27.440Z,28.72
2022-07-31T08:30:25.351Z,28.78
2022-07-31T08:31:25.355Z,28.70
2022-07-31T08:32:25.370Z,28.81
2022-07-31T08:33:25.386Z,28.79
2022-07-31T08:34:30.930Z,28.81
2022-07-31T08:35:25.426Z,28.78
2022-07-31T08:36:25.415Z,28.72
2022-07-31T08:37:51.742Z,28.78
2022-07-31T08:38:25.482Z,28.70
2022-07-31T08:39:25.463Z,28.69
2022-07-31T08:40:25.468Z,28.70
2022-07-31T08:41:25.497Z,28.63
2022-07-31T08:42:25.494Z,28.78
2022-07-31T08:44:00.544Z,28.69
2022-07-31T08:44:26.461Z,28.81
2022-07-31T08:45:25.518Z,28.79
2022-07-31T08:46:25.543Z,28.84
2022-07-31T08:47:25.552Z,28.86
2022-07-31T08:48:25.557Z,28.89
2022-07-31T08:49:25.637Z,29.02
2022-07-31T08:50:25.566Z,29.01
2022-07-31T08:51:25.604Z,28.93
2022-07-31T08:52:25.586Z,28.91
2022-07-31T08:53:25.608Z,28.94
2022-07-31T08:54:25.608Z,28.94
2022-07-31T08:55:57.102Z,28.98
2022-07-31T08:56:25.621Z,28.98
2022-07-31T08:57:25.640Z,29.01
2022-07-31T08:58:25.692Z,28.94
2022-07-31T08:59:25.654Z,28.97
2022-07-31T09:00:25.677Z,28.88
2022-07-31T09:01:25.783Z,28.93
2022-07-31T09:02:25.681Z,28.79
2022-07-31T09:03:25.703Z,28.88
2022-07-31T09:04:25.710Z,28.88
2022-07-31T09:05:25.714Z,28.89
2022-07-31T09:06:25.719Z,28.91
2022-07-31T09:07:25.727Z,28.86
2022-07-31T09:08:25.733Z,28.79
2022-07-31T09:09:25.751Z,28.79
2022-07-31T09:10:25.752Z,28.84
2022-07-31T09:11:25.766Z,28.69
2022-07-31T09:12:33.590Z,28.57
2022-07-31T09:13:25.789Z,28.62
2022-07-31T09:14:25.801Z,28.63
2022-07-31T09:15:25.807Z,28.59
2022-07-31T09:16:30.693Z,28.54
2022-07-31T09:17:25.845Z,28.57
2022-07-31T09:18:25.817Z,28.52
2022-07-31T09:19:52.261Z,28.47
2022-07-31T09:20:25.848Z,28.48
2022-07-31T09:21:25.848Z,28.33
2022-07-31T09:22:25.875Z,28.25
2022-07-31T09:23:25.873Z,28.15
2022-07-31T09:24:25.881Z,28.14
2022-07-31T09:25:25.888Z,28.19
2022-07-31T09:26:25.902Z,28.10
2022-07-31T09:27:25.911Z,28.15
2022-07-31T09:28:25.921Z,28.11
2022-07-31T09:29:25.922Z,28.01
2022-07-31T09:30:25.962Z,28.07
2022-07-31T09:31:25.934Z,28.00
2022-07-31T09:32:25.944Z,28.00
2022-07-31T09:33:25.948Z,28.04
2022-07-31T09:34:25.953Z,28.01
2022-07-31T09:35:25.980Z,28.01
2022-07-31T09:36:25.968Z,27.98
2022-07-31T09:37:25.979Z,27.83
2022-07-31T09:38:25.987Z,27.86
2022-07-31T09:39:27.078Z,27.74
2022-07-31T09:40:25.994Z,27.65
2022-07-31T09:42:00.219Z,27.60
2022-07-31T09:42:26.011Z,27.55
2022-07-31T09:43:26.035Z,27.52
2022-07-31T09:44:26.392Z,27.49
2022-07-31T09:45:26.032Z,27.48
2022-07-31T09:46:26.044Z,27.42
2022-07-31T09:47:26.066Z,27.42
2022-07-31T09:48:28.479Z,27.45
2022-07-31T09:49:26.096Z,27.49
2022-07-31T09:50:26.075Z,27.52
2022-07-31T09:51:26.088Z,27.51
2022-07-31T09:52:26.101Z,27.47
2022-07-31T09:53:26.102Z,27.42
2022-07-31T09:54:26.111Z,27.42
2022-07-31T09:55:26.122Z,27.39
2022-07-31T09:56:26.127Z,27.32
2022-07-31T09:57:26.137Z,27.27
2022-07-31T09:58:26.147Z,27.20
2022-07-31T09:59:26.165Z,27.12
2022-07-31T10:00:26.236Z,27.05
2022-07-31T10:01:26.267Z,26.99
2022-07-31T10:02:26.172Z,26.95
2022-07-31T10:03:26.165Z,26.92
2022-07-31T10:04:26.174Z,26.89
2022-07-31T10:05:26.193Z,26.95
2022-07-31T10:06:26.198Z,26.93
2022-07-31T10:07:32.834Z,27.02
2022-07-31T10:08:26.218Z,27.03
2022-07-31T10:09:26.210Z,27.08
2022-07-31T10:10:26.233Z,27.03
2022-07-31T10:11:26.229Z,27.14
2022-07-31T10:12:26.246Z,27.14
2022-07-31T10:13:26.243Z,27.18
2022-07-31T10:14:26.249Z,27.15
2022-07-31T10:15:26.255Z,27.12
2022-07-31T10:16:26.271Z,27.03
2022-07-31T10:17:26.284Z,26.89
2022-07-31T10:18:35.719Z,26.80
2022-07-31T10:19:26.300Z,26.89
2022-07-31T10:20:26.295Z,26.77
2022-07-31T10:21:26.302Z,26.78
2022-07-31T10:22:26.315Z,26.75
2022-07-31T10:23:26.312Z,26.81
2022-07-31T10:24:28.310Z,26.80
2022-07-31T10:25:26.326Z,26.77
2022-07-31T10:26:44.501Z,26.77
2022-07-31T10:27:26.354Z,26.75
2022-07-31T10:28:26.353Z,26.78
2022-07-31T10:29:26.358Z,26.84
2022-07-31T10:30:28.320Z,26.83
2022-07-31T10:31:26.365Z,26.80
2022-07-31T10:32:26.384Z,26.77
2022-07-31T10:33:43.645Z,26.80
2022-07-31T10:34:26.393Z,26.84
2022-07-31T10:35:26.399Z,26.85
2022-07-31T10:36:26.404Z,26.81
2022-07-31T10:37:26.410Z,26.88
2022-07-31T10:38:26.415Z,26.80
2022-07-31T10:39:26.421Z,26.83
2022-07-31T10:40:26.442Z,26.77
2022-07-31T10:41:26.459Z,26.80
2022-07-31T10:42:26.447Z,26.66
2022-07-31T10:43:26.451Z,26.62
2022-07-31T10:44:26.469Z,26.53
2022-07-31T10:45:26.466Z,26.52
2022-07-31T10:46:26.483Z,26.58
2022-07-31T10:47:26.474Z,26.62
2022-07-31T10:48:26.499Z,26.59
2022-07-31T10:49:26.577Z,26.66
2022-07-31T10:50:26.510Z,26.62
2022-07-31T10:51:26.516Z,26.65
2022-07-31T10:52:26.521Z,26.62
2022-07-31T10:53:51.446Z,26.56
2022-07-31T10:54:26.532Z,26.53
2022-07-31T10:55:26.537Z,26.44
2022-07-31T10:56:26.530Z,26.40
2022-07-31T10:57:26.550Z,26.26
2022-07-31T10:58:26.550Z,26.31
2022-07-31T10:59:26.555Z,26.29
2022-07-31T11:00:29.486Z,26.25
2022-07-31T11:01:26.626Z,26.28
2022-07-31T11:02:26.607Z,26.29
2022-07-31T11:03:26.586Z,26.31
2022-07-31T11:04:26.614Z,26.34
2022-07-31T11:05:26.623Z,26.31
2022-07-31T11:06:26.602Z,26.44
2022-07-31T11:07:26.621Z,26.43
2022-07-31T11:08:26.637Z,26.43
2022-07-31T11:09:26.614Z,26.47
2022-07-31T11:10:26.634Z,26.53
2022-07-31T11:11:26.641Z,26.53
2022-07-31T11:12:26.640Z,26.55
2022-07-31T11:13:33.728Z,26.47
2022-07-31T11:14:26.661Z,26.55
2022-07-31T11:15:26.655Z,26.45
2022-07-31T11:16:26.673Z,26.48
2022-07-31T11:18:20.914Z,26.53
2022-07-31T11:18:34.673Z,26.44
2022-07-31T11:20:30.701Z,26.45
2022-07-31T11:21:38.528Z,26.47
2022-07-31T11:23:34.705Z,26.37
2022-07-31T11:24:34.705Z,26.37
2022-07-31T11:26:41.658Z,26.37
2022-07-31T11:27:38.715Z,26.36
2022-07-31T11:30:02.013Z,26.47
2022-07-31T11:30:31.645Z,26.37
2022-07-31T11:32:35.664Z,26.47
2022-07-31T11:33:41.678Z,26.48
2022-07-31T11:35:39.693Z,26.53
2022-07-31T11:36:39.680Z,26.52
2022-07-31T11:38:44.691Z,26.43
2022-07-31T11:39:51.539Z,26.55
2022-07-31T11:41:47.750Z,26.55
2022-07-31T11:42:55.869Z,26.60
2022-07-31T11:43:47.717Z,26.60
2022-07-31T11:44:47.722Z,26.68
2022-07-31T11:45:48.159Z,26.77
2022-07-31T11:46:47.738Z,26.68
2022-07-31T11:48:11.350Z,26.68
2022-07-31T11:48:47.788Z,26.62
2022-07-31T11:49:48.930Z,26.74
2022-07-31T11:50:47.767Z,26.71
2022-07-31T11:51:47.771Z,26.65
2022-07-31T11:52:47.768Z,26.70
2022-07-31T11:53:56.687Z,26.68
2022-07-31T11:54:47.791Z,26.68
2022-07-31T11:55:47.806Z,26.63
2022-07-31T11:56:47.797Z,26.70
2022-07-31T11:57:51.352Z,26.70
2022-07-31T11:58:47.812Z,26.70
2022-07-31T11:59:49.601Z,26.73
2022-07-31T12:00:47.834Z,26.62
2022-07-31T12:01:47.833Z,26.60
2022-07-31T12:02:47.957Z,26.62
2022-07-31T12:03:47.851Z,26.63
2022-07-31T12:04:47.853Z,26.68
2022-07-31T12:05:47.865Z,26.70
2022-07-31T12:06:47.869Z,26.66
2022-07-31T12:07:47.876Z,26.68
2022-07-31T12:08:47.888Z,26.65
2022-07-31T12:10:00.770Z,26.68
2022-07-31T12:10:47.895Z,26.70
2022-07-31T12:11:47.911Z,26.63
2022-07-31T12:12:47.907Z,26.65
2022-07-31T12:13:47.920Z,26.73
2022-07-31T12:14:47.913Z,26.68
2022-07-31T12:15:47.920Z,26.65
2022-07-31T12:16:47.925Z,26.70
2022-07-31T12:17:47.966Z,26.73
2022-07-31T12:18:47.952Z,26.65
2022-07-31T12:19:47.949Z,26.71
2022-07-31T12:20:47.957Z,26.75
2022-07-31T12:21:47.959Z,26.75
2022-07-31T12:22:47.971Z,26.74
2022-07-31T12:23:47.978Z,26.68
2022-07-31T12:24:47.985Z,26.74
2022-07-31T12:25:47.995Z,26.65
2022-07-31T12:26:48.008Z,26.70
2022-07-31T12:27:48.020Z,26.60
2022-07-31T12:28:48.025Z,26.56
2022-07-31T12:29:48.024Z,26.53
2022-07-31T12:30:48.030Z,26.56
2022-07-31T12:31:48.025Z,26.56
2022-07-31T12:32:48.042Z,26.58
2022-07-31T12:33:48.052Z,26.34
2022-07-31T12:34:48.055Z,26.40
2022-07-31T12:35:55.802Z,26.41
2022-07-31T12:36:48.077Z,26.29
2022-07-31T12:37:48.080Z,26.23
2022-07-31T12:38:49.221Z,26.29
2022-07-31T12:39:59.412Z,26.31
2022-07-31T12:40:48.087Z,26.33
2022-07-31T12:41:48.102Z,26.23
2022-07-31T12:42:48.111Z,26.22
2022-07-31T12:43:51.108Z,26.18
2022-07-31T12:44:48.118Z,26.19
2022-07-31T12:45:48.173Z,26.23
2022-07-31T12:46:48.126Z,26.10
2022-07-31T12:47:51.852Z,26.21
2022-07-31T12:48:48.263Z,26.23
2022-07-31T12:49:48.173Z,26.18
2022-07-31T12:50:48.232Z,26.10
2022-07-31T12:51:48.163Z,26.15
2022-07-31T12:52:48.167Z,26.16
2022-07-31T12:53:48.175Z,26.18
2022-07-31T12:54:48.182Z,26.10
2022-07-31T12:55:48.181Z,26.10
2022-07-31T12:56:48.189Z,26.28
2022-07-31T12:57:50.424Z,26.29
2022-07-31T12:58:48.200Z,26.28
2022-07-31T12:59:48.208Z,26.29
2022-07-31T13:00:48.216Z,26.26
2022-07-31T13:01:48.288Z,26.37
2022-07-31T13:02:48.227Z,26.38
2022-07-31T13:03:48.222Z,26.37
2022-07-31T13:04:48.236Z,26.40
2022-07-31T13:05:52.037Z,26.37
2022-07-31T13:06:48.244Z,26.45
2022-07-31T13:07:48.256Z,26.56
2022-07-31T13:08:48.259Z,26.60